sensor_id;sensor_type;location;lat;lon;timestamp;P1;durP1;ratioP1;P2;durP2;ratioP2
59294;SDS011;45067;44.654;20.200;2023-07-20T00:00:39;10.57;;;4.05;;
59294;SDS011;45067;44.654;20.200;2023-07-20T00:03:12;7.45;;;3.45;;
59294;SDS011;45067;44.654;20.200;2023-07-20T00:05:42;9.60;;;3.75;;
59294;SDS011;45067;44.654;20.200;2023-07-20T00:08:09;10.43;;;4.53;;
59294;SDS011;45067;44.654;20.200;2023-07-20T00:10:35;10.73;;;4.53;;
59294;SDS011;45067;44.654;20.200;2023-07-20T00:13:01;11.25;;;4.10;;
59294;SDS011;45067;44.654;20.200;2023-07-20T00:15:27;11.80;;;4.30;;
59294;SDS011;45067;44.654;20.200;2023-07-20T00:17:56;9.77;;;4.30;;
59294;SDS011;45067;44.654;20.200;2023-07-20T00:20:23;11.93;;;4.87;;
59294;SDS011;45067;44.654;20.200;2023-07-20T00:22:50;12.35;;;4.28;;
59294;SDS011;45067;44.654;20.200;2023-07-20T00:25:17;13.07;;;3.90;;
59294;SDS011;45067;44.654;20.200;2023-07-20T00:27:43;11.25;;;4.20;;
59294;SDS011;45067;44.654;20.200;2023-07-20T00:30:09;12.15;;;4.20;;
59294;SDS011;45067;44.654;20.200;2023-07-20T00:32:35;12.27;;;4.60;;
59294;SDS011;45067;44.654;20.200;2023-07-20T00:35:01;13.95;;;5.65;;
59294;SDS011;45067;44.654;20.200;2023-07-20T00:37:28;11.65;;;4.85;;
59294;SDS011;45067;44.654;20.200;2023-07-20T00:39:54;11.20;;;5.47;;
59294;SDS011;45067;44.654;20.200;2023-07-20T00:42:20;12.82;;;5.53;;
59294;SDS011;45067;44.654;20.200;2023-07-20T00:44:46;15.48;;;5.55;;
59294;SDS011;45067;44.654;20.200;2023-07-20T00:47:15;13.40;;;4.88;;
59294;SDS011;45067;44.654;20.200;2023-07-20T00:49:45;11.57;;;5.25;;
59294;SDS011;45067;44.654;20.200;2023-07-20T00:52:29;12.88;;;5.20;;
59294;SDS011;45067;44.654;20.200;2023-07-20T00:54:56;15.00;;;6.03;;
59294;SDS011;45067;44.654;20.200;2023-07-20T00:57:22;14.32;;;6.15;;
59294;SDS011;45067;44.654;20.200;2023-07-20T00:59:53;18.02;;;6.03;;
59294;SDS011;45067;44.654;20.200;2023-07-20T01:02:46;15.15;;;6.13;;
59294;SDS011;45067;44.654;20.200;2023-07-20T01:05:12;9.15;;;4.85;;
59294;SDS011;45067;44.654;20.200;2023-07-20T01:08:01;16.83;;;6.65;;
59294;SDS011;45067;44.654;20.200;2023-07-20T01:10:31;17.20;;;6.40;;
59294;SDS011;45067;44.654;20.200;2023-07-20T01:12:59;15.82;;;6.25;;
59294;SDS011;45067;44.654;20.200;2023-07-20T01:15:26;11.95;;;6.63;;
59294;SDS011;45067;44.654;20.200;2023-07-20T01:17:52;15.90;;;6.40;;
59294;SDS011;45067;44.654;20.200;2023-07-20T01:20:19;15.77;;;5.68;;
59294;SDS011;45067;44.654;20.200;2023-07-20T01:26:25;18.38;;;6.80;;
59294;SDS011;45067;44.654;20.200;2023-07-20T01:31:19;14.02;;;5.93;;
59294;SDS011;45067;44.654;20.200;2023-07-20T01:33:47;12.43;;;5.72;;
59294;SDS011;45067;44.654;20.200;2023-07-20T01:36:14;13.00;;;6.05;;
59294;SDS011;45067;44.654;20.200;2023-07-20T01:38:42;15.30;;;5.97;;
59294;SDS011;45067;44.654;20.200;2023-07-20T01:41:09;16.88;;;5.45;;
59294;SDS011;45067;44.654;20.200;2023-07-20T01:43:36;13.95;;;5.80;;
59294;SDS011;45067;44.654;20.200;2023-07-20T01:46:02;12.70;;;6.32;;
59294;SDS011;45067;44.654;20.200;2023-07-20T01:48:28;15.70;;;5.57;;
59294;SDS011;45067;44.654;20.200;2023-07-20T01:50:54;13.45;;;5.32;;
59294;SDS011;45067;44.654;20.200;2023-07-20T01:53:20;11.52;;;5.53;;
59294;SDS011;45067;44.654;20.200;2023-07-20T01:55:46;14.60;;;5.28;;
59294;SDS011;45067;44.654;20.200;2023-07-20T01:58:13;15.55;;;6.30;;
59294;SDS011;45067;44.654;20.200;2023-07-20T02:00:39;13.75;;;6.15;;
59294;SDS011;45067;44.654;20.200;2023-07-20T02:03:05;12.70;;;6.47;;
59294;SDS011;45067;44.654;20.200;2023-07-20T02:05:31;34.80;;;19.00;;
59294;SDS011;45067;44.654;20.200;2023-07-20T02:07:57;19.92;;;9.63;;
59294;SDS011;45067;44.654;20.200;2023-07-20T02:10:23;14.18;;;6.85;;
59294;SDS011;45067;44.654;20.200;2023-07-20T02:12:49;17.42;;;8.35;;
59294;SDS011;45067;44.654;20.200;2023-07-20T02:15:15;19.60;;;8.40;;
59294;SDS011;45067;44.654;20.200;2023-07-20T02:17:42;18.15;;;8.70;;
59294;SDS011;45067;44.654;20.200;2023-07-20T02:20:08;19.00;;;9.30;;
59294;SDS011;45067;44.654;20.200;2023-07-20T02:22:38;18.55;;;7.47;;
59294;SDS011;45067;44.654;20.200;2023-07-20T02:25:04;12.13;;;7.15;;
59294;SDS011;45067;44.654;20.200;2023-07-20T02:27:30;16.33;;;8.07;;
59294;SDS011;45067;44.654;20.200;2023-07-20T02:29:57;16.92;;;7.70;;
59294;SDS011;45067;44.654;20.200;2023-07-20T02:32:23;21.17;;;7.75;;
59294;SDS011;45067;44.654;20.200;2023-07-20T02:34:49;17.17;;;9.00;;
59294;SDS011;45067;44.654;20.200;2023-07-20T02:37:16;22.20;;;10.75;;
59294;SDS011;45067;44.654;20.200;2023-07-20T02:39:42;21.02;;;10.25;;
59294;SDS011;45067;44.654;20.200;2023-07-20T02:42:08;27.98;;;17.67;;
59294;SDS011;45067;44.654;20.200;2023-07-20T02:44:34;20.25;;;9.93;;
59294;SDS011;45067;44.654;20.200;2023-07-20T02:47:00;20.15;;;9.93;;
59294;SDS011;45067;44.654;20.200;2023-07-20T02:49:27;20.90;;;9.05;;
59294;SDS011;45067;44.654;20.200;2023-07-20T02:51:56;16.23;;;8.20;;
59294;SDS011;45067;44.654;20.200;2023-07-20T02:54:23;17.23;;;8.45;;
59294;SDS011;45067;44.654;20.200;2023-07-20T02:56:49;15.80;;;8.35;;
59294;SDS011;45067;44.654;20.200;2023-07-20T02:59:15;16.00;;;7.88;;
59294;SDS011;45067;44.654;20.200;2023-07-20T03:01:41;15.75;;;8.98;;
59294;SDS011;45067;44.654;20.200;2023-07-20T03:04:08;15.48;;;7.45;;
59294;SDS011;45067;44.654;20.200;2023-07-20T03:06:35;16.40;;;7.35;;
59294;SDS011;45067;44.654;20.200;2023-07-20T03:09:01;13.90;;;7.20;;
59294;SDS011;45067;44.654;20.200;2023-07-20T03:11:28;15.25;;;6.75;;
59294;SDS011;45067;44.654;20.200;2023-07-20T03:13:55;12.15;;;6.82;;
59294;SDS011;45067;44.654;20.200;2023-07-20T03:16:21;19.02;;;5.82;;
59294;SDS011;45067;44.654;20.200;2023-07-20T03:18:47;15.05;;;6.47;;
59294;SDS011;45067;44.654;20.200;2023-07-20T03:21:13;15.27;;;7.28;;
59294;SDS011;45067;44.654;20.200;2023-07-20T03:23:40;14.45;;;6.85;;
59294;SDS011;45067;44.654;20.200;2023-07-20T03:26:06;12.27;;;6.38;;
59294;SDS011;45067;44.654;20.200;2023-07-20T03:28:36;15.85;;;7.68;;
59294;SDS011;45067;44.654;20.200;2023-07-20T03:31:02;19.67;;;7.32;;
59294;SDS011;45067;44.654;20.200;2023-07-20T03:33:29;17.45;;;7.78;;
59294;SDS011;45067;44.654;20.200;2023-07-20T03:35:55;19.88;;;7.53;;
59294;SDS011;45067;44.654;20.200;2023-07-20T03:38:31;18.25;;;8.07;;
59294;SDS011;45067;44.654;20.200;2023-07-20T03:40:59;20.02;;;8.00;;
59294;SDS011;45067;44.654;20.200;2023-07-20T03:43:25;19.20;;;7.78;;
59294;SDS011;45067;44.654;20.200;2023-07-20T03:45:52;16.73;;;7.35;;
59294;SDS011;45067;44.654;20.200;2023-07-20T03:48:20;14.73;;;7.03;;
59294;SDS011;45067;44.654;20.200;2023-07-20T03:50:47;13.73;;;6.32;;
59294;SDS011;45067;44.654;20.200;2023-07-20T03:53:13;12.18;;;7.22;;
59294;SDS011;45067;44.654;20.200;2023-07-20T03:55:40;16.83;;;8.00;;
59294;SDS011;45067;44.654;20.200;2023-07-20T03:58:06;16.35;;;8.23;;
59294;SDS011;45067;44.654;20.200;2023-07-20T04:00:33;21.90;;;11.95;;
59294;SDS011;45067;44.654;20.200;2023-07-20T04:03:00;14.95;;;7.22;;
59294;SDS011;45067;44.654;20.200;2023-07-20T04:05:26;14.40;;;7.93;;
59294;SDS011;45067;44.654;20.200;2023-07-20T04:07:52;29.48;;;22.92;;
59294;SDS011;45067;44.654;20.200;2023-07-20T04:10:18;14.82;;;6.80;;
59294;SDS011;45067;44.654;20.200;2023-07-20T04:12:44;16.08;;;6.68;;
59294;SDS011;45067;44.654;20.200;2023-07-20T04:15:12;17.50;;;7.32;;
59294;SDS011;45067;44.654;20.200;2023-07-20T04:17:38;11.70;;;6.53;;
59294;SDS011;45067;44.654;20.200;2023-07-20T04:20:05;18.90;;;7.18;;
59294;SDS011;45067;44.654;20.200;2023-07-20T04:22:32;17.95;;;6.95;;
59294;SDS011;45067;44.654;20.200;2023-07-20T04:24:58;16.73;;;7.55;;
59294;SDS011;45067;44.654;20.200;2023-07-20T04:27:24;15.80;;;7.05;;
59294;SDS011;45067;44.654;20.200;2023-07-20T04:29:50;13.35;;;7.50;;
59294;SDS011;45067;44.654;20.200;2023-07-20T04:32:16;13.32;;;7.90;;
59294;SDS011;45067;44.654;20.200;2023-07-20T04:34:42;22.10;;;8.10;;
59294;SDS011;45067;44.654;20.200;2023-07-20T04:37:08;15.55;;;7.15;;
59294;SDS011;45067;44.654;20.200;2023-07-20T04:39:39;15.55;;;7.75;;
59294;SDS011;45067;44.654;20.200;2023-07-20T04:42:05;13.80;;;7.53;;
59294;SDS011;45067;44.654;20.200;2023-07-20T04:44:31;20.65;;;8.35;;
59294;SDS011;45067;44.654;20.200;2023-07-20T04:46:57;16.75;;;8.85;;
59294;SDS011;45067;44.654;20.200;2023-07-20T04:49:23;21.08;;;9.43;;
59294;SDS011;45067;44.654;20.200;2023-07-20T04:51:49;19.38;;;9.80;;
59294;SDS011;45067;44.654;20.200;2023-07-20T04:54:16;18.85;;;8.73;;
59294;SDS011;45067;44.654;20.200;2023-07-20T04:56:43;16.02;;;8.50;;
59294;SDS011;45067;44.654;20.200;2023-07-20T04:59:09;14.20;;;7.75;;
59294;SDS011;45067;44.654;20.200;2023-07-20T05:01:35;11.88;;;7.75;;
59294;SDS011;45067;44.654;20.200;2023-07-20T05:04:02;15.82;;;7.97;;
59294;SDS011;45067;44.654;20.200;2023-07-20T05:06:28;21.35;;;8.57;;
59294;SDS011;45067;44.654;20.200;2023-07-20T05:08:54;15.52;;;8.52;;
59294;SDS011;45067;44.654;20.200;2023-07-20T05:11:20;20.02;;;8.98;;
59294;SDS011;45067;44.654;20.200;2023-07-20T05:13:46;15.75;;;8.23;;
59294;SDS011;45067;44.654;20.200;2023-07-20T05:16:12;15.82;;;8.48;;
59294;SDS011;45067;44.654;20.200;2023-07-20T05:18:38;13.93;;;7.38;;
59294;SDS011;45067;44.654;20.200;2023-07-20T05:21:05;14.32;;;7.55;;
59294;SDS011;45067;44.654;20.200;2023-07-20T05:23:32;14.88;;;8.18;;
59294;SDS011;45067;44.654;20.200;2023-07-20T05:25:58;18.63;;;7.53;;
59294;SDS011;45067;44.654;20.200;2023-07-20T05:28:25;15.55;;;7.70;;
59294;SDS011;45067;44.654;20.200;2023-07-20T05:30:52;14.38;;;7.63;;
59294;SDS011;45067;44.654;20.200;2023-07-20T05:33:19;11.02;;;6.93;;
59294;SDS011;45067;44.654;20.200;2023-07-20T05:35:45;11.80;;;6.40;;
59294;SDS011;45067;44.654;20.200;2023-07-20T05:38:11;12.80;;;5.93;;
59294;SDS011;45067;44.654;20.200;2023-07-20T05:40:37;19.00;;;6.50;;
59294;SDS011;45067;44.654;20.200;2023-07-20T05:43:04;12.93;;;6.28;;
59294;SDS011;45067;44.654;20.200;2023-07-20T05:45:30;14.27;;;6.55;;
59294;SDS011;45067;44.654;20.200;2023-07-20T05:47:56;12.65;;;6.07;;
59294;SDS011;45067;44.654;20.200;2023-07-20T05:50:22;11.52;;;5.88;;
59294;SDS011;45067;44.654;20.200;2023-07-20T05:52:48;10.63;;;5.72;;
59294;SDS011;45067;44.654;20.200;2023-07-20T05:55:14;13.32;;;6.07;;
59294;SDS011;45067;44.654;20.200;2023-07-20T05:57:40;13.07;;;5.95;;
59294;SDS011;45067;44.654;20.200;2023-07-20T06:00:08;15.45;;;6.28;;
59294;SDS011;45067;44.654;20.200;2023-07-20T06:02:35;11.07;;;5.55;;
59294;SDS011;45067;44.654;20.200;2023-07-20T06:05:01;10.68;;;5.40;;
59294;SDS011;45067;44.654;20.200;2023-07-20T06:07:27;12.27;;;6.22;;
59294;SDS011;45067;44.654;20.200;2023-07-20T06:09:53;16.52;;;6.40;;
59294;SDS011;45067;44.654;20.200;2023-07-20T06:12:19;11.30;;;6.03;;
59294;SDS011;45067;44.654;20.200;2023-07-20T06:14:45;12.70;;;6.22;;
59294;SDS011;45067;44.654;20.200;2023-07-20T06:17:13;11.68;;;5.40;;
59294;SDS011;45067;44.654;20.200;2023-07-20T06:19:39;11.10;;;5.93;;
59294;SDS011;45067;44.654;20.200;2023-07-20T06:22:05;10.70;;;5.32;;
59294;SDS011;45067;44.654;20.200;2023-07-20T06:24:31;13.00;;;7.40;;
59294;SDS011;45067;44.654;20.200;2023-07-20T06:26:57;12.85;;;6.45;;
59294;SDS011;45067;44.654;20.200;2023-07-20T06:29:23;14.10;;;6.30;;
59294;SDS011;45067;44.654;20.200;2023-07-20T06:31:49;11.40;;;6.40;;
59294;SDS011;45067;44.654;20.200;2023-07-20T06:34:15;13.90;;;6.93;;
59294;SDS011;45067;44.654;20.200;2023-07-20T06:36:41;15.35;;;6.38;;
59294;SDS011;45067;44.654;20.200;2023-07-20T06:39:07;14.38;;;6.00;;
59294;SDS011;45067;44.654;20.200;2023-07-20T06:41:33;11.10;;;6.10;;
59294;SDS011;45067;44.654;20.200;2023-07-20T06:44:00;10.52;;;5.95;;
59294;SDS011;45067;44.654;20.200;2023-07-20T06:46:26;9.70;;;6.03;;
59294;SDS011;45067;44.654;20.200;2023-07-20T06:48:52;14.38;;;6.30;;
59294;SDS011;45067;44.654;20.200;2023-07-20T06:51:18;16.10;;;7.68;;
59294;SDS011;45067;44.654;20.200;2023-07-20T06:53:45;12.40;;;6.45;;
59294;SDS011;45067;44.654;20.200;2023-07-20T06:56:11;12.55;;;6.80;;
59294;SDS011;45067;44.654;20.200;2023-07-20T06:58:37;11.50;;;6.88;;
59294;SDS011;45067;44.654;20.200;2023-07-20T07:01:09;15.45;;;7.30;;
59294;SDS011;45067;44.654;20.200;2023-07-20T07:03:35;15.43;;;7.22;;
59294;SDS011;45067;44.654;20.200;2023-07-20T07:06:02;16.33;;;7.00;;
59294;SDS011;45067;44.654;20.200;2023-07-20T07:08:28;13.18;;;6.88;;
59294;SDS011;45067;44.654;20.200;2023-07-20T07:10:54;22.10;;;7.10;;
59294;SDS011;45067;44.654;20.200;2023-07-20T07:13:20;15.15;;;7.63;;
59294;SDS011;45067;44.654;20.200;2023-07-20T07:15:47;13.75;;;7.10;;
59294;SDS011;45067;44.654;20.200;2023-07-20T07:18:13;14.15;;;6.38;;
59294;SDS011;45067;44.654;20.200;2023-07-20T07:20:39;13.50;;;7.20;;
59294;SDS011;45067;44.654;20.200;2023-07-20T07:23:05;14.77;;;8.52;;
59294;SDS011;45067;44.654;20.200;2023-07-20T07:25:31;18.85;;;7.28;;
59294;SDS011;45067;44.654;20.200;2023-07-20T07:27:57;12.70;;;7.15;;
59294;SDS011;45067;44.654;20.200;2023-07-20T07:30:23;12.23;;;6.82;;
59294;SDS011;45067;44.654;20.200;2023-07-20T07:32:49;9.32;;;6.72;;
59294;SDS011;45067;44.654;20.200;2023-07-20T07:35:15;14.52;;;6.80;;
59294;SDS011;45067;44.654;20.200;2023-07-20T07:37:41;12.73;;;6.82;;
59294;SDS011;45067;44.654;20.200;2023-07-20T07:40:08;12.63;;;6.80;;
59294;SDS011;45067;44.654;20.200;2023-07-20T07:42:34;14.55;;;7.28;;
59294;SDS011;45067;44.654;20.200;2023-07-20T07:45:00;11.65;;;6.80;;
59294;SDS011;45067;44.654;20.200;2023-07-20T07:47:27;12.80;;;7.25;;
59294;SDS011;45067;44.654;20.200;2023-07-20T07:49:53;12.18;;;7.10;;
59294;SDS011;45067;44.654;20.200;2023-07-20T07:52:19;11.30;;;6.78;;
59294;SDS011;45067;44.654;20.200;2023-07-20T07:54:46;11.00;;;7.15;;
59294;SDS011;45067;44.654;20.200;2023-07-20T07:57:12;11.63;;;7.18;;
59294;SDS011;45067;44.654;20.200;2023-07-20T07:59:39;14.18;;;7.38;;
59294;SDS011;45067;44.654;20.200;2023-07-20T08:02:05;16.73;;;7.18;;
59294;SDS011;45067;44.654;20.200;2023-07-20T08:04:31;10.70;;;6.68;;
59294;SDS011;45067;44.654;20.200;2023-07-20T08:06:58;12.43;;;6.30;;
59294;SDS011;45067;44.654;20.200;2023-07-20T08:09:25;11.40;;;5.72;;
59294;SDS011;45067;44.654;20.200;2023-07-20T08:11:51;14.57;;;6.90;;
59294;SDS011;45067;44.654;20.200;2023-07-20T08:14:17;9.27;;;6.22;;
59294;SDS011;45067;44.654;20.200;2023-07-20T08:16:44;9.63;;;5.88;;
59294;SDS011;45067;44.654;20.200;2023-07-20T08:19:11;15.07;;;6.10;;
59294;SDS011;45067;44.654;20.200;2023-07-20T08:21:38;10.93;;;5.60;;
59294;SDS011;45067;44.654;20.200;2023-07-20T08:24:04;9.70;;;6.03;;
59294;SDS011;45067;44.654;20.200;2023-07-20T08:26:30;11.05;;;6.28;;
59294;SDS011;45067;44.654;20.200;2023-07-20T08:28:56;9.77;;;5.80;;
59294;SDS011;45067;44.654;20.200;2023-07-20T08:31:22;10.50;;;6.18;;
59294;SDS011;45067;44.654;20.200;2023-07-20T08:33:48;12.32;;;5.60;;
59294;SDS011;45067;44.654;20.200;2023-07-20T08:36:14;11.25;;;6.03;;
59294;SDS011;45067;44.654;20.200;2023-07-20T08:38:41;8.60;;;4.90;;
59294;SDS011;45067;44.654;20.200;2023-07-20T08:41:08;10.07;;;5.38;;
59294;SDS011;45067;44.654;20.200;2023-07-20T08:43:34;10.07;;;6.70;;
59294;SDS011;45067;44.654;20.200;2023-07-20T08:46:01;11.13;;;5.57;;
59294;SDS011;45067;44.654;20.200;2023-07-20T08:48:28;7.00;;;4.72;;
59294;SDS011;45067;44.654;20.200;2023-07-20T08:50:56;9.57;;;5.00;;
59294;SDS011;45067;44.654;20.200;2023-07-20T08:53:25;11.10;;;5.00;;
59294;SDS011;45067;44.654;20.200;2023-07-20T08:55:51;7.60;;;4.75;;
59294;SDS011;45067;44.654;20.200;2023-07-20T08:58:17;9.73;;;5.18;;
59294;SDS011;45067;44.654;20.200;2023-07-20T09:00:44;7.20;;;4.80;;
59294;SDS011;45067;44.654;20.200;2023-07-20T09:03:10;9.40;;;5.00;;
59294;SDS011;45067;44.654;20.200;2023-07-20T09:05:36;8.95;;;4.80;;
59294;SDS011;45067;44.654;20.200;2023-07-20T09:08:05;10.35;;;4.80;;
59294;SDS011;45067;44.654;20.200;2023-07-20T09:10:31;8.02;;;5.25;;
59294;SDS011;45067;44.654;20.200;2023-07-20T09:12:57;11.20;;;5.28;;
59294;SDS011;45067;44.654;20.200;2023-07-20T09:15:23;9.43;;;5.00;;
59294;SDS011;45067;44.654;20.200;2023-07-20T09:17:50;7.15;;;4.65;;
59294;SDS011;45067;44.654;20.200;2023-07-20T09:20:18;8.25;;;4.55;;
59294;SDS011;45067;44.654;20.200;2023-07-20T09:22:45;8.70;;;4.65;;
59294;SDS011;45067;44.654;20.200;2023-07-20T09:25:15;5.63;;;4.07;;
59294;SDS011;45067;44.654;20.200;2023-07-20T09:27:42;10.00;;;5.70;;
59294;SDS011;45067;44.654;20.200;2023-07-20T09:30:09;9.23;;;4.95;;
59294;SDS011;45067;44.654;20.200;2023-07-20T09:32:42;6.78;;;4.10;;
59294;SDS011;45067;44.654;20.200;2023-07-20T09:35:12;7.18;;;3.85;;
59294;SDS011;45067;44.654;20.200;2023-07-20T09:37:39;7.45;;;4.40;;
59294;SDS011;45067;44.654;20.200;2023-07-20T09:40:08;6.80;;;4.03;;
59294;SDS011;45067;44.654;20.200;2023-07-20T09:42:35;7.72;;;4.80;;
59294;SDS011;45067;44.654;20.200;2023-07-20T09:45:01;6.80;;;4.28;;
59294;SDS011;45067;44.654;20.200;2023-07-20T09:47:27;7.90;;;4.38;;
59294;SDS011;45067;44.654;20.200;2023-07-20T09:49:58;8.13;;;4.43;;
59294;SDS011;45067;44.654;20.200;2023-07-20T09:52:28;6.60;;;4.10;;
59294;SDS011;45067;44.654;20.200;2023-07-20T09:54:55;5.43;;;3.67;;
59294;SDS011;45067;44.654;20.200;2023-07-20T09:57:21;7.38;;;4.05;;
59294;SDS011;45067;44.654;20.200;2023-07-20T09:59:47;9.23;;;4.10;;
59294;SDS011;45067;44.654;20.200;2023-07-20T10:02:20;7.90;;;4.03;;
59294;SDS011;45067;44.654;20.200;2023-07-20T10:04:48;8.98;;;5.20;;
59294;SDS011;45067;44.654;20.200;2023-07-20T10:07:15;12.23;;;7.22;;
59294;SDS011;45067;44.654;20.200;2023-07-20T10:09:41;8.85;;;5.85;;
59294;SDS011;45067;44.654;20.200;2023-07-20T10:12:08;7.03;;;4.40;;
59294;SDS011;45067;44.654;20.200;2023-07-20T10:14:35;7.45;;;4.45;;
59294;SDS011;45067;44.654;20.200;2023-07-20T10:17:04;12.82;;;5.28;;
59294;SDS011;45067;44.654;20.200;2023-07-20T10:22:03;7.72;;;5.07;;
59294;SDS011;45067;44.654;20.200;2023-07-20T10:24:32;10.68;;;5.68;;
59294;SDS011;45067;44.654;20.200;2023-07-20T10:27:00;14.52;;;7.80;;
59294;SDS011;45067;44.654;20.200;2023-07-20T10:29:26;9.45;;;4.47;;
59294;SDS011;45067;44.654;20.200;2023-07-20T10:31:54;8.10;;;4.72;;
59294;SDS011;45067;44.654;20.200;2023-07-20T10:34:21;9.23;;;5.70;;
59294;SDS011;45067;44.654;20.200;2023-07-20T10:36:47;19.02;;;10.40;;
59294;SDS011;45067;44.654;20.200;2023-07-20T10:39:26;9.00;;;6.13;;
59294;SDS011;45067;44.654;20.200;2023-07-20T10:42:09;6.95;;;4.13;;
59294;SDS011;45067;44.654;20.200;2023-07-20T10:44:41;12.38;;;5.57;;
59294;SDS011;45067;44.654;20.200;2023-07-20T10:47:09;6.60;;;4.20;;
59294;SDS011;45067;44.654;20.200;2023-07-20T10:49:38;7.22;;;4.45;;
59294;SDS011;45067;44.654;20.200;2023-07-20T10:52:21;11.35;;;5.00;;
59294;SDS011;45067;44.654;20.200;2023-07-20T10:54:47;7.07;;;4.60;;
59294;SDS011;45067;44.654;20.200;2023-07-20T10:57:24;5.90;;;4.38;;
59294;SDS011;45067;44.654;20.200;2023-07-20T10:59:51;6.68;;;4.50;;
59294;SDS011;45067;44.654;20.200;2023-07-20T11:02:20;6.75;;;4.55;;
59294;SDS011;45067;44.654;20.200;2023-07-20T11:04:46;6.45;;;4.53;;
59294;SDS011;45067;44.654;20.200;2023-07-20T11:07:16;12.10;;;4.78;;
59294;SDS011;45067;44.654;20.200;2023-07-20T11:09:42;7.45;;;4.80;;
59294;SDS011;45067;44.654;20.200;2023-07-20T11:12:18;7.03;;;5.13;;
59294;SDS011;45067;44.654;20.200;2023-07-20T11:14:57;6.10;;;4.55;;
59294;SDS011;45067;44.654;20.200;2023-07-20T11:17:30;7.57;;;4.80;;
59294;SDS011;45067;44.654;20.200;2023-07-20T11:19:56;6.65;;;4.93;;
59294;SDS011;45067;44.654;20.200;2023-07-20T11:22:23;9.90;;;5.65;;
59294;SDS011;45067;44.654;20.200;2023-07-20T11:27:44;10.25;;;5.20;;
59294;SDS011;45067;44.654;20.200;2023-07-20T11:30:15;9.43;;;5.88;;
59294;SDS011;45067;44.654;20.200;2023-07-20T11:32:47;11.02;;;5.68;;
59294;SDS011;45067;44.654;20.200;2023-07-20T11:35:13;7.88;;;4.50;;
59294;SDS011;45067;44.654;20.200;2023-07-20T11:37:40;6.57;;;4.80;;
59294;SDS011;45067;44.654;20.200;2023-07-20T11:40:06;8.73;;;5.22;;
59294;SDS011;45067;44.654;20.200;2023-07-20T11:42:34;7.00;;;5.07;;
59294;SDS011;45067;44.654;20.200;2023-07-20T11:45:02;8.10;;;4.70;;
59294;SDS011;45067;44.654;20.200;2023-07-20T11:47:30;7.60;;;4.90;;
59294;SDS011;45067;44.654;20.200;2023-07-20T11:49:56;9.43;;;6.40;;
59294;SDS011;45067;44.654;20.200;2023-07-20T11:52:28;7.57;;;5.32;;
59294;SDS011;45067;44.654;20.200;2023-07-20T11:54:56;8.90;;;5.55;;
59294;SDS011;45067;44.654;20.200;2023-07-20T11:57:23;9.77;;;4.72;;
59294;SDS011;45067;44.654;20.200;2023-07-20T11:59:55;9.63;;;5.70;;
59294;SDS011;45067;44.654;20.200;2023-07-20T12:02:22;11.00;;;6.72;;
59294;SDS011;45067;44.654;20.200;2023-07-20T12:04:50;6.97;;;5.22;;
59294;SDS011;45067;44.654;20.200;2023-07-20T12:07:18;9.02;;;6.00;;
59294;SDS011;45067;44.654;20.200;2023-07-20T12:09:44;8.77;;;4.80;;
59294;SDS011;45067;44.654;20.200;2023-07-20T12:12:10;7.25;;;5.10;;
59294;SDS011;45067;44.654;20.200;2023-07-20T12:14:39;11.33;;;6.47;;
59294;SDS011;45067;44.654;20.200;2023-07-20T12:17:07;9.95;;;5.25;;
59294;SDS011;45067;44.654;20.200;2023-07-20T12:19:37;9.00;;;6.03;;
59294;SDS011;45067;44.654;20.200;2023-07-20T12:22:04;13.30;;;6.25;;
59294;SDS011;45067;44.654;20.200;2023-07-20T12:24:31;8.40;;;5.75;;
59294;SDS011;45067;44.654;20.200;2023-07-20T12:26:59;12.30;;;5.93;;
59294;SDS011;45067;44.654;20.200;2023-07-20T12:29:25;10.75;;;7.00;;
59294;SDS011;45067;44.654;20.200;2023-07-20T12:31:52;9.77;;;6.40;;
59294;SDS011;45067;44.654;20.200;2023-07-20T12:34:18;10.80;;;6.03;;
59294;SDS011;45067;44.654;20.200;2023-07-20T12:36:44;8.43;;;5.55;;
59294;SDS011;45067;44.654;20.200;2023-07-20T12:39:10;10.25;;;6.32;;
59294;SDS011;45067;44.654;20.200;2023-07-20T12:41:36;11.68;;;7.70;;
59294;SDS011;45067;44.654;20.200;2023-07-20T12:44:02;7.95;;;5.45;;
59294;SDS011;45067;44.654;20.200;2023-07-20T12:46:28;15.48;;;11.90;;
59294;SDS011;45067;44.654;20.200;2023-07-20T12:48:55;13.48;;;10.02;;
59294;SDS011;45067;44.654;20.200;2023-07-20T12:51:21;15.23;;;9.73;;
59294;SDS011;45067;44.654;20.200;2023-07-20T12:53:49;12.55;;;9.38;;
59294;SDS011;45067;44.654;20.200;2023-07-20T12:56:15;12.48;;;8.20;;
59294;SDS011;45067;44.654;20.200;2023-07-20T12:58:41;15.98;;;11.55;;
59294;SDS011;45067;44.654;20.200;2023-07-20T13:01:10;13.35;;;6.72;;
59294;SDS011;45067;44.654;20.200;2023-07-20T13:03:36;8.60;;;5.50;;
59294;SDS011;45067;44.654;20.200;2023-07-20T13:06:03;8.15;;;5.28;;
59294;SDS011;45067;44.654;20.200;2023-07-20T13:08:29;8.27;;;5.47;;
59294;SDS011;45067;44.654;20.200;2023-07-20T13:10:55;9.98;;;5.03;;
59294;SDS011;45067;44.654;20.200;2023-07-20T13:13:22;8.50;;;5.30;;
59294;SDS011;45067;44.654;20.200;2023-07-20T13:15:49;9.65;;;4.95;;
59294;SDS011;45067;44.654;20.200;2023-07-20T13:18:15;8.57;;;4.63;;
59294;SDS011;45067;44.654;20.200;2023-07-20T13:20:41;7.75;;;5.50;;
59294;SDS011;45067;44.654;20.200;2023-07-20T13:23:07;8.70;;;5.18;;
59294;SDS011;45067;44.654;20.200;2023-07-20T13:25:33;7.85;;;4.53;;
59294;SDS011;45067;44.654;20.200;2023-07-20T13:27:59;8.15;;;4.82;;
59294;SDS011;45067;44.654;20.200;2023-07-20T13:30:25;9.00;;;6.28;;
59294;SDS011;45067;44.654;20.200;2023-07-20T13:32:51;12.20;;;7.32;;
59294;SDS011;45067;44.654;20.200;2023-07-20T13:35:19;10.15;;;6.22;;
59294;SDS011;45067;44.654;20.200;2023-07-20T13:37:45;9.68;;;4.65;;
59294;SDS011;45067;44.654;20.200;2023-07-20T13:40:11;8.82;;;4.60;;
59294;SDS011;45067;44.654;20.200;2023-07-20T13:42:38;7.72;;;4.75;;
59294;SDS011;45067;44.654;20.200;2023-07-20T13:45:05;10.15;;;4.90;;
59294;SDS011;45067;44.654;20.200;2023-07-20T13:47:32;8.38;;;4.50;;
59294;SDS011;45067;44.654;20.200;2023-07-20T13:49:58;6.57;;;4.43;;
59294;SDS011;45067;44.654;20.200;2023-07-20T13:52:24;9.32;;;6.50;;
59294;SDS011;45067;44.654;20.200;2023-07-20T13:54:50;7.15;;;5.05;;
59294;SDS011;45067;44.654;20.200;2023-07-20T13:57:16;7.97;;;5.40;;
59294;SDS011;45067;44.654;20.200;2023-07-20T13:59:43;13.07;;;6.07;;
59294;SDS011;45067;44.654;20.200;2023-07-20T14:02:09;10.88;;;6.50;;
59294;SDS011;45067;44.654;20.200;2023-07-20T14:04:36;12.25;;;6.28;;
59294;SDS011;45067;44.654;20.200;2023-07-20T14:07:02;10.82;;;6.25;;
59294;SDS011;45067;44.654;20.200;2023-07-20T14:09:28;7.97;;;5.35;;
59294;SDS011;45067;44.654;20.200;2023-07-20T14:11:54;8.32;;;4.97;;
59294;SDS011;45067;44.654;20.200;2023-07-20T14:14:21;9.40;;;5.05;;
59294;SDS011;45067;44.654;20.200;2023-07-20T14:16:47;11.40;;;4.93;;
59294;SDS011;45067;44.654;20.200;2023-07-20T14:19:13;10.90;;;4.60;;
59294;SDS011;45067;44.654;20.200;2023-07-20T14:21:39;9.70;;;5.32;;
59294;SDS011;45067;44.654;20.200;2023-07-20T14:24:05;18.05;;;15.48;;
59294;SDS011;45067;44.654;20.200;2023-07-20T14:26:31;9.80;;;6.80;;
59294;SDS011;45067;44.654;20.200;2023-07-20T14:28:57;8.32;;;4.70;;
59294;SDS011;45067;44.654;20.200;2023-07-20T14:31:23;9.63;;;5.32;;
59294;SDS011;45067;44.654;20.200;2023-07-20T14:33:49;9.45;;;5.18;;
59294;SDS011;45067;44.654;20.200;2023-07-20T14:36:16;12.88;;;6.55;;